Time,TemperatureF,DewpointF,PressureIn,WindDirection,WindDirectionDegrees,WindSpeedMPH,WindSpeedGustMPH,Humidity,HourlyPrecipIn,Conditions,Clouds,dailyrainin,SoftwareType,DateUTC
2013-10-28 00:01:00,34.3,21.1,30.19,West,270,0.0,0.0,58,0.00,CLR,CLR,0.00,WeatherDisplay:10.34,2013-10-28 04:01:00,
2013-10-28 00:02:00,34.3,21.1,30.19,West,270,0.0,0.0,58,0.00,CLR,CLR,0.00,WeatherDisplay:10.34,2013-10-28 04:02:00,
2013-10-28 00:05:00,34.3,21.1,30.19,West,270,0.0,0.0,58,0.00,CLR,CLR,0.00,WeatherDisplay:10.34,2013-10-28 04:05:00,
2013-10-28 00:08:00,34.3,21.1,30.19,West,270,0.0,0.0,58,0.00,CLR,CLR,0.00,WeatherDisplay:10.34,2013-10-28 04:08:00,
2013-10-28 00:11:00,34.3,21.5,30.19,West,270,0.0,0.0,59,0.00,CLR,CLR,0.00,WeatherDisplay:10.34,2013-10-28 04:11:00,
2013-10-28 00:16:00,34.2,21.3,30.19,West,270,0.0,0.0,59,0.00,CLR,CLR,0.00,WeatherDisplay:10.34,2013-10-28 04:16:00,
2013-10-28 00:18:00,34.2,21.3,30.19,West,270,0.0,0.0,59,0.00,CLR,CLR,0.00,WeatherDisplay:10.34,2013-10-28 04:18:00,
2013-10-28 00:23:00,34.2,21.7,30.19,West,270,0.0,0.0,60,0.00,CLR,CLR,0.00,WeatherDisplay:10.34,2013-10-28 04:23:00,
2013-10-28 00:28:00,34.0,21.5,30.19,West,270,0.0,0.0,60,0.00,CLR,CLR,0.00,WeatherDisplay:10.34,2013-10-28 04:28:00,
2013-10-28 00:33:00,34.0,21.9,30.19,West,270,0.0,0.0,61,0.00,CLR,CLR,0.00,WeatherDisplay:10.34,2013-10-28 04:33:00,
2013-10-28 00:38:00,34.0,21.9,30.19,West,270,0.0,0.0,61,0.00,CLR,CLR,0.00,WeatherDisplay:10.34,2013-10-28 04:38:00,
2013-10-28 00:43:00,33.8,21.8,30.19,West,270,0.0,0.0,61,0.00,CLR,CLR,0.00,WeatherDisplay:10.34,2013-10-28 04:43:00,
2013-10-28 00:48:00,33.8,22.1,30.19,West,270,0.0,0.0,62,0.00,CLR,CLR,0.00,WeatherDisplay:10.34,2013-10-28 04:48:00,
2013-10-28 00:53:00,33.8,22.1,30.19,West,270,0.0,0.0,62,0.00,CLR,CLR,0.00,WeatherDisplay:10.34,2013-10-28 04:53:00,
2013-10-28 00:58:00,33.8,22.5,30.19,West,270,0.0,0.0,63,0.00,CLR,CLR,0.00,WeatherDisplay:10.34,2013-10-28 04:58:00,
2013-10-28 01:03:00,33.6,22.4,30.19,West,270,0.0,0.0,63,0.00,CLR,CLR,0.00,WeatherDisplay:10.34,2013-10-28 05:03:00,
2013-10-28 01:08:00,33.6,22.7,30.19,West,270,0.0,0.0,64,0.00,CLR,CLR,0.00,WeatherDisplay:10.34,2013-10-28 05:08:00,
2013-10-28 01:13:00,33.6,22.7,30.19,West,270,0.0,0.0,64,0.00,CLR,CLR,0.00,WeatherDisplay:10.34,2013-10-28 05:13:00,
2013-10-28 01:18:00,33.8,23.3,30.19,West,270,0.0,0.0,65,0.00,CLR,CLR,0.00,WeatherDisplay:10.34,2013-10-28 05:18:00,
2013-10-28 01:23:00,33.6,23.1,30.19,West,270,0.0,0.0,65,0.00,CLR,CLR,0.00,WeatherDisplay:10.34,2013-10-28 05:23:00,
2013-10-28 01:28:00,33.6,23.1,30.19,West,269,0.0,0.0,65,0.00,CLR,CLR,0.00,WeatherDisplay:10.34,2013-10-28 05:28:00,
2013-10-28 01:33:00,33.6,23.1,30.19,West,270,0.0,3.0,65,0.00,CLR,CLR,0.00,WeatherDisplay:10.34,2013-10-28 05:33:00,
2013-10-28 01:38:00,33.4,22.9,30.19,West,275,0.0,0.0,65,0.00,CLR,CLR,0.00,WeatherDisplay:10.34,2013-10-28 05:38:00,
2013-10-28 01:43:00,33.6,23.5,30.19,West,275,0.0,0.0,66,0.00,CLR,CLR,0.00,WeatherDisplay:10.34,2013-10-28 05:43:00,
2013-10-28 01:48:00,33.4,22.9,30.19,West,275,0.0,0.0,65,0.00,CLR,CLR,0.00,WeatherDisplay:10.34,2013-10-28 05:48:00,
2013-10-28 01:53:00,33.3,23.1,30.19,West,275,0.0,0.0,66,0.00,CLR,CLR,0.00,WeatherDisplay:10.34,2013-10-28 05:53:00,
2013-10-28 01:58:00,33.4,23.3,30.19,WSW,255,0.0,3.0,66,0.00,CLR,CLR,0.00,WeatherDisplay:10.34,2013-10-28 05:58:00,
2013-10-28 02:03:00,33.3,23.5,30.19,WSW,255,0.0,0.0,67,0.00,CLR,CLR,0.00,WeatherDisplay:10.34,2013-10-28 06:03:00,
2013-10-28 02:08:00,33.3,23.5,30.19,WSW,256,0.0,0.0,67,0.00,CLR,CLR,0.00,WeatherDisplay:10.34,2013-10-28 06:08:00,
2013-10-28 02:13:00,33.1,23.3,30.19,WSW,255,0.0,0.0,67,0.00,CLR,CLR,0.00,WeatherDisplay:10.34,2013-10-28 06:13:00,
2013-10-28 02:18:00,33.1,23.7,30.19,WSW,255,0.0,0.0,68,0.00,CLR,CLR,0.00,WeatherDisplay:10.34,2013-10-28 06:18:00,
2013-10-28 02:23:00,33.1,23.7,30.19,WSW,257,0.0,0.0,68,0.00,CLR,CLR,0.00,WeatherDisplay:10.34,2013-10-28 06:23:00,
2013-10-28 02:28:00,33.1,23.7,30.19,WSW,257,0.0,0.0,68,0.00,CLR,CLR,0.00,WeatherDisplay:10.34,2013-10-28 06:28:00,
2013-10-28 02:33:00,33.3,23.8,30.19,West,260,0.0,3.0,68,0.00,CLR,CLR,0.00,WeatherDisplay:10.34,2013-10-28 06:33:00,
2013-10-28 02:38:00,33.1,23.7,30.19,West,263,0.0,2.0,68,0.00,CLR,CLR,0.00,WeatherDisplay:10.34,2013-10-28 06:38:00,
2013-10-28 02:43:00,33.3,23.5,30.19,WSW,242,0.0,5.0,67,0.00,CLR,CLR,0.00,WeatherDisplay:10.34,2013-10-28 06:43:00,
2013-10-28 02:48:00,33.4,23.7,30.19,WNW,288,3.0,5.0,67,0.00,CLR,CLR,0.00,WeatherDisplay:10.34,2013-10-28 06:48:00,
2013-10-28 02:53:00,33.6,23.8,30.19,West,270,0.0,3.0,67,0.00,CLR,CLR,0.00,WeatherDisplay:10.34,2013-10-28 06:53:00,
2013-10-28 02:58:00,33.6,23.5,30.19,West,270,0.0,0.0,66,0.00,CLR,CLR,0.00,WeatherDisplay:10.34,2013-10-28 06:58:00,
2013-10-28 03:03:00,33.3,22.8,30.19,West,270,0.0,3.0,65,0.00,CLR,CLR,0.00,WeatherDisplay:10.34,2013-10-28 07:03:00,
2013-10-28 03:08:00,33.3,23.1,30.19,West,270,0.0,0.0,66,0.00,CLR,CLR,0.00,WeatherDisplay:10.34,2013-10-28 07:08:00,
2013-10-28 03:13:00,33.3,23.1,30.19,West,268,0.0,0.0,66,0.00,CLR,CLR,0.00,WeatherDisplay:10.34,2013-10-28 07:13:00,
2013-10-28 03:18:00,33.4,23.7,30.19,West,268,0.0,2.0,67,0.00,CLR,CLR,0.00,WeatherDisplay:10.34,2013-10-28 07:18:00,
2013-10-28 03:23:00,33.4,23.3,30.19,WNW,292,3.0,7.0,66,0.00,CLR,CLR,0.00,WeatherDisplay:10.34,2013-10-28 07:23:00,
2013-10-28 03:28:00,33.6,23.5,30.19,NW,305,3.0,5.0,66,0.00,CLR,CLR,0.00,WeatherDisplay:10.34,2013-10-28 07:28:00,
2013-10-28 03:33:00,33.8,23.6,30.19,WNW,295,0.0,3.0,66,0.00,CLR,CLR,0.00,WeatherDisplay:10.34,2013-10-28 07:33:00,
2013-10-28 03:38:00,33.8,23.3,30.19,WNW,293,0.0,0.0,65,0.00,CLR,CLR,0.00,WeatherDisplay:10.34,2013-10-28 07:38:00,
2013-10-28 03:43:00,33.6,22.7,30.22,WNW,293,0.0,2.0,64,0.00,CLR,CLR,0.00,WeatherDisplay:10.34,2013-10-28 07:43:00,
2013-10-28 03:48:00,33.3,22.4,30.22,WNW,293,0.0,3.0,64,0.00,CLR,CLR,0.00,WeatherDisplay:10.34,2013-10-28 07:48:00,
2013-10-28 03:53:00,33.3,22.8,30.22,WNW,293,0.0,2.0,65,0.00,CLR,CLR,0.00,WeatherDisplay:10.34,2013-10-28 07:53:00,
2013-10-28 03:58:00,33.3,23.1,30.19,WNW,293,0.0,0.0,66,0.00,CLR,CLR,0.00,WeatherDisplay:10.34,2013-10-28 07:58:00,
2013-10-28 04:03:00,33.1,22.9,30.19,WNW,293,0.0,0.0,66,0.00,CLR,CLR,0.00,WeatherDisplay:10.34,2013-10-28 08:03:00,
2013-10-28 04:08:00,32.9,23.1,30.19,WNW,293,0.0,0.0,67,0.00,BKN,BKN,0.00,WeatherDisplay:10.34,2013-10-28 08:08:00,
2013-10-28 04:13:00,32.9,23.8,30.19,WNW,293,0.0,0.0,69,0.00,BKN,BKN,0.00,WeatherDisplay:10.34,2013-10-28 08:13:00,
2013-10-28 04:18:00,32.9,23.8,30.19,WNW,293,0.0,0.0,69,0.00,BKN,BKN,0.00,WeatherDisplay:10.34,2013-10-28 08:18:00,
2013-10-28 04:23:00,33.1,24.4,30.19,WNW,293,0.0,0.0,70,0.00,BKN,BKN,0.00,WeatherDisplay:10.34,2013-10-28 08:23:00,
2013-10-28 04:28:00,33.3,24.5,30.22,WNW,293,0.0,0.0,70,0.00,BKN,BKN,0.00,WeatherDisplay:10.34,2013-10-28 08:28:00,
2013-10-28 04:33:00,33.3,24.5,30.22,WNW,293,0.0,3.0,70,0.00,BKN,BKN,0.00,WeatherDisplay:10.34,2013-10-28 08:33:00,
2013-10-28 04:38:00,33.4,24.7,30.22,WNW,293,0.0,2.0,70,0.00,BKN,BKN,0.00,WeatherDisplay:10.34,2013-10-28 08:38:00,
2013-10-28 04:43:00,33.6,24.9,30.22,WNW,293,0.0,0.0,70,0.00,BKN,BKN,0.00,WeatherDisplay:10.34,2013-10-28 08:43:00,
2013-10-28 04:48:00,33.8,25.0,30.22,WNW,293,0.0,3.0,70,0.00,BKN,BKN,0.00,WeatherDisplay:10.34,2013-10-28 08:48:00,
2013-10-28 04:53:00,33.8,25.0,30.22,WNW,292,0.0,2.0,70,0.00,BKN,BKN,0.00,WeatherDisplay:10.34,2013-10-28 08:53:00,
2013-10-28 04:58:00,33.8,25.0,30.22,West,274,0.0,6.0,70,0.00,BKN,BKN,0.00,WeatherDisplay:10.34,2013-10-28 08:58:00,
2013-10-28 05:03:00,33.8,25.0,30.22,West,274,0.0,0.0,70,0.00,BKN,BKN,0.00,WeatherDisplay:10.34,2013-10-28 09:03:00,
2013-10-28 05:08:00,34.0,25.2,30.22,West,274,0.0,2.0,70,0.00,OVC,OVC,0.00,WeatherDisplay:10.34,2013-10-28 09:08:00,
2013-10-28 05:13:00,34.3,25.6,30.22,West,281,0.0,3.0,70,0.00,OVC,OVC,0.00,WeatherDisplay:10.34,2013-10-28 09:13:00,
2013-10-28 05:18:00,34.5,25.7,30.22,West,281,0.0,0.0,70,0.00,OVC,OVC,0.00,WeatherDisplay:10.34,2013-10-28 09:18:00,
2013-10-28 05:23:00,34.5,25.7,30.22,West,280,0.0,0.0,70,0.00,OVC,OVC,0.00,WeatherDisplay:10.34,2013-10-28 09:23:00,
2013-10-28 05:28:00,34.7,25.9,30.22,West,280,0.0,0.0,70,0.00,OVC,OVC,0.00,WeatherDisplay:10.34,2013-10-28 09:28:00,
2013-10-28 05:33:00,34.9,26.1,30.22,West,280,0.0,0.0,70,0.00,OVC,OVC,0.00,WeatherDisplay:10.34,2013-10-28 09:33:00,
2013-10-28 05:38:00,35.1,26.3,30.22,West,280,0.0,0.0,70,0.00,OVC,OVC,0.00,WeatherDisplay:10.34,2013-10-28 09:38:00,
2013-10-28 05:43:00,35.2,26.4,30.22,WNW,284,0.0,3.0,70,0.00,OVC,OVC,0.00,WeatherDisplay:10.34,2013-10-28 09:43:00,
2013-10-28 05:48:00,35.4,26.6,30.22,WNW,283,0.0,0.0,70,0.00,OVC,OVC,0.00,WeatherDisplay:10.34,2013-10-28 09:48:00,
2013-10-28 05:53:00,35.6,26.4,30.22,WNW,283,0.0,0.0,69,0.00,OVC,OVC,0.00,WeatherDisplay:10.34,2013-10-28 09:53:00,
2013-10-28 05:58:00,35.6,26.4,30.23,WNW,283,0.0,0.0,69,0.00,OVC,OVC,0.00,WeatherDisplay:10.34,2013-10-28 09:58:00,
2013-10-28 06:03:00,35.8,26.6,30.23,WNW,283,0.0,0.0,69,0.00,OVC,OVC,0.00,WeatherDisplay:10.34,2013-10-28 10:03:00,
2013-10-28 06:08:00,35.8,26.6,30.23,WNW,284,0.0,0.0,69,0.00,OVC,OVC,0.00,WeatherDisplay:10.34,2013-10-28 10:08:00,
2013-10-28 06:13:00,35.8,26.6,30.23,WNW,283,0.0,0.0,69,0.00,OVC,OVC,0.00,WeatherDisplay:10.34,2013-10-28 10:13:00,
2013-10-28 06:18:00,35.8,26.6,30.23,WNW,283,0.0,0.0,69,0.00,OVC,OVC,0.00,WeatherDisplay:10.34,2013-10-28 10:18:00,
2013-10-28 06:23:00,35.8,26.6,30.23,WNW,283,0.0,0.0,69,0.00,OVC,OVC,0.00,WeatherDisplay:10.34,2013-10-28 10:23:00,
2013-10-28 06:28:00,35.8,26.2,30.23,WNW,284,0.0,0.0,68,0.00,OVC,OVC,0.00,WeatherDisplay:10.34,2013-10-28 10:28:00,
2013-10-28 06:33:00,35.8,26.2,30.23,WNW,284,0.0,0.0,68,0.00,OVC,OVC,0.00,WeatherDisplay:10.34,2013-10-28 10:33:00,
2013-10-28 06:38:00,35.8,26.2,30.23,WNW,284,0.0,0.0,68,0.00,OVC,OVC,0.00,WeatherDisplay:10.34,2013-10-28 10:38:00,
2013-10-28 06:43:00,35.6,26.1,30.23,WNW,283,0.0,0.0,68,0.00,OVC,OVC,0.00,WeatherDisplay:10.34,2013-10-28 10:43:00,
2013-10-28 06:48:00,35.4,25.5,30.23,WNW,283,0.0,0.0,67,0.00,OVC,OVC,0.00,WeatherDisplay:10.34,2013-10-28 10:48:00,
2013-10-28 06:53:00,35.4,25.5,30.23,WNW,284,0.0,0.0,67,0.00,OVC,OVC,0.00,WeatherDisplay:10.34,2013-10-28 10:53:00,
2013-10-28 06:58:00,35.2,25.4,30.23,WNW,284,0.0,0.0,67,0.00,OVC,OVC,0.00,WeatherDisplay:10.34,2013-10-28 10:58:00,
2013-10-28 07:03:00,35.1,25.2,30.23,WNW,284,0.0,0.0,67,0.00,OVC,OVC,0.00,WeatherDisplay:10.34,2013-10-28 11:03:00,
2013-10-28 07:08:00,35.1,25.2,30.23,WNW,283,0.0,0.0,67,0.00,BKN,BKN,0.00,WeatherDisplay:10.34,2013-10-28 11:08:00,
2013-10-28 07:13:00,34.9,25.4,30.23,WNW,283,0.0,0.0,68,0.00,BKN,BKN,0.00,WeatherDisplay:10.34,2013-10-28 11:13:00,
2013-10-28 07:18:00,34.9,25.4,30.23,WNW,283,0.0,0.0,68,0.00,BKN,BKN,0.00,WeatherDisplay:10.34,2013-10-28 11:18:00,
2013-10-28 07:23:00,35.1,25.9,30.23,WNW,283,0.0,0.0,69,0.00,BKN,BKN,0.00,WeatherDisplay:10.34,2013-10-28 11:23:00,
2013-10-28 07:28:00,35.1,25.9,30.23,WNW,283,0.0,0.0,69,0.00,BKN,BKN,0.00,WeatherDisplay:10.34,2013-10-28 11:28:00,
2013-10-28 07:33:00,34.9,25.7,30.23,WNW,283,0.0,0.0,69,0.00,BKN,BKN,0.00,WeatherDisplay:10.34,2013-10-28 11:33:00,
2013-10-28 07:38:00,35.1,25.9,30.23,WNW,284,0.0,0.0,69,0.00,BKN,BKN,0.00,WeatherDisplay:10.34,2013-10-28 11:38:00,
2013-10-28 07:43:00,35.1,26.3,30.23,WNW,284,0.0,0.0,70,0.00,BKN,BKN,0.00,WeatherDisplay:10.34,2013-10-28 11:43:00,
2013-10-28 07:48:00,35.1,26.3,30.23,WNW,284,0.0,0.0,70,0.00,BKN,BKN,0.00,WeatherDisplay:10.34,2013-10-28 11:48:00,
2013-10-28 07:53:00,35.1,26.3,30.23,WNW,283,0.0,0.0,70,0.00,BKN,BKN,0.00,WeatherDisplay:10.34,2013-10-28 11:53:00,
2013-10-28 07:58:00,35.4,26.9,30.23,WNW,284,0.0,2.0,71,0.00,BKN,BKN,0.00,WeatherDisplay:10.34,2013-10-28 11:58:00,
2013-10-28 08:03:00,35.2,26.8,30.23,WNW,284,0.0,0.0,71,0.00,BKN,BKN,0.00,WeatherDisplay:10.34,2013-10-28 12:03:00,
2013-10-28 08:08:00,35.2,26.4,30.23,WNW,282,0.0,0.0,70,0.00,OVC,OVC,0.00,WeatherDisplay:10.34,2013-10-28 12:08:00,
2013-10-28 08:13:00,35.2,26.8,30.23,West,276,0.0,2.0,71,0.00,OVC,OVC,0.00,WeatherDisplay:10.34,2013-10-28 12:13:00,
2013-10-28 08:18:00,35.2,26.8,30.23,West,276,0.0,0.0,71,0.00,OVC,OVC,0.00,WeatherDisplay:10.34,2013-10-28 12:18:00,
2013-10-28 08:23:00,35.4,26.9,30.23,West,276,0.0,0.0,71,0.00,OVC,OVC,0.00,WeatherDisplay:10.34,2013-10-28 12:23:00,
2013-10-28 08:28:00,35.4,26.9,30.23,West,276,0.0,0.0,71,0.00,OVC,OVC,0.00,WeatherDisplay:10.34,2013-10-28 12:28:00,
2013-10-28 08:33:00,35.6,27.5,30.23,WSW,249,4.0,6.0,72,0.00,OVC,OVC,0.00,WeatherDisplay:10.34,2013-10-28 12:33:00,
2013-10-28 08:38:00,35.8,28.0,30.23,WSW,250,0.0,3.0,73,0.00,OVC,OVC,0.00,WeatherDisplay:10.34,2013-10-28 12:38:00,
2013-10-28 08:43:00,36.3,28.5,30.23,West,279,3.0,7.0,73,0.00,OVC,OVC,0.00,WeatherDisplay:10.34,2013-10-28 12:43:00,
2013-10-28 08:48:00,36.9,28.7,30.23,South,184,0.0,2.0,72,0.00,OVC,OVC,0.00,WeatherDisplay:10.34,2013-10-28 12:48:00,
2013-10-28 08:53:00,37.4,28.5,30.23,West,268,3.0,5.0,70,0.00,OVC,OVC,0.00,WeatherDisplay:10.34,2013-10-28 12:53:00,
2013-10-28 08:58:00,37.8,28.5,30.23,WSW,241,0.0,3.0,69,0.00,OVC,OVC,0.00,WeatherDisplay:10.34,2013-10-28 12:58:00,
2013-10-28 09:03:00,38.1,28.5,30.23,North,11,0.0,7.0,68,0.00,OVC,OVC,0.00,WeatherDisplay:10.34,2013-10-28 13:03:00,
2013-10-28 09:08:00,38.5,27.4,30.23,East,93,4.0,6.0,64,0.00,CLR,CLR,0.00,WeatherDisplay:10.34,2013-10-28 13:08:00,
2013-10-28 09:13:00,38.7,26.8,30.26,SSW,210,5.0,7.0,62,0.00,CLR,CLR,0.00,WeatherDisplay:10.34,2013-10-28 13:13:00,
2013-10-28 09:18:00,38.8,26.5,30.26,West,267,5.0,8.0,61,0.00,CLR,CLR,0.00,WeatherDisplay:10.34,2013-10-28 13:18:00,
2013-10-28 09:23:00,39.2,25.6,30.26,SW,217,3.0,6.0,58,0.00,CLR,CLR,0.00,WeatherDisplay:10.34,2013-10-28 13:23:00,
2013-10-28 09:28:00,39.6,25.6,30.23,WSW,243,4.0,15.0,57,0.00,CLR,CLR,0.00,WeatherDisplay:10.34,2013-10-28 13:28:00,
2013-10-28 09:33:00,39.9,25.0,30.23,NNW,327,4.0,9.0,55,0.00,CLR,CLR,0.00,WeatherDisplay:10.34,2013-10-28 13:33:00,
2013-10-28 09:38:00,40.1,24.8,30.23,SW,234,5.0,8.0,54,0.00,CLR,CLR,0.00,WeatherDisplay:10.34,2013-10-28 13:38:00,
2013-10-28 09:43:00,40.5,24.7,30.23,North,2,4.0,12.0,53,0.00,CLR,CLR,0.00,WeatherDisplay:10.34,2013-10-28 13:43:00,
2013-10-28 09:48:00,40.6,24.8,30.23,SSE,148,6.0,9.0,53,0.00,CLR,CLR,0.00,WeatherDisplay:10.34,2013-10-28 13:48:00,
2013-10-28 09:53:00,41.0,24.7,30.23,West,270,6.0,13.0,52,0.00,CLR,CLR,0.00,WeatherDisplay:10.34,2013-10-28 13:53:00,
2013-10-28 09:58:00,41.4,24.6,30.23,NW,322,4.0,6.0,51,0.00,CLR,CLR,0.00,WeatherDisplay:10.34,2013-10-28 13:58:00,
2013-10-28 10:03:00,41.5,24.3,30.23,SSE,165,4.0,8.0,50,0.00,CLR,CLR,0.00,WeatherDisplay:10.34,2013-10-28 14:03:00,
2013-10-28 10:08:00,41.7,24.4,30.23,SSW,208,4.0,8.0,50,0.00,SCT,SCT,0.00,WeatherDisplay:10.34,2013-10-28 14:08:00,
2013-10-28 10:13:00,42.1,24.3,30.23,SW,228,4.0,6.0,49,0.00,SCT,SCT,0.00,WeatherDisplay:10.34,2013-10-28 14:13:00,
2013-10-28 10:18:00,42.3,24.4,30.23,South,185,3.0,6.0,49,0.00,SCT,SCT,0.00,WeatherDisplay:10.34,2013-10-28 14:18:00,
2013-10-28 10:23:00,42.6,23.8,30.23,WSW,245,6.0,14.0,47,0.00,SCT,SCT,0.00,WeatherDisplay:10.34,2013-10-28 14:23:00,
2013-10-28 10:28:00,43.0,24.1,30.23,NNE,18,5.0,7.0,47,0.00,SCT,SCT,0.00,WeatherDisplay:10.34,2013-10-28 14:28:00,
2013-10-28 10:33:00,43.2,23.8,30.22,West,279,4.0,6.0,46,0.00,SCT,SCT,0.00,WeatherDisplay:10.34,2013-10-28 14:33:00,
2013-10-28 10:38:00,43.5,24.1,30.22,NNE,21,7.0,9.0,46,0.00,SCT,SCT,0.00,WeatherDisplay:10.34,2013-10-28 14:38:00,
2013-10-28 10:43:00,43.7,23.7,30.22,West,267,6.0,8.0,45,0.00,SCT,SCT,0.00,WeatherDisplay:10.34,2013-10-28 14:43:00,
2013-10-28 10:48:00,44.1,23.5,30.22,West,270,7.0,15.0,44,0.00,SCT,SCT,0.00,WeatherDisplay:10.34,2013-10-28 14:48:00,
2013-10-28 10:53:00,44.2,23.1,30.22,WNW,294,6.0,9.0,43,0.00,SCT,SCT,0.00,WeatherDisplay:10.34,2013-10-28 14:53:00,
2013-10-28 10:58:00,44.6,23.5,30.22,East,86,5.0,7.0,43,0.00,SCT,SCT,0.00,WeatherDisplay:10.34,2013-10-28 14:58:00,
2013-10-28 11:03:00,45.0,23.2,30.22,West,263,9.0,12.0,42,0.00,SCT,SCT,0.00,WeatherDisplay:10.34,2013-10-28 15:03:00,
2013-10-28 11:08:00,45.3,23.5,30.22,NNE,30,5.0,8.0,42,0.00,CLR,CLR,0.00,WeatherDisplay:10.34,2013-10-28 15:08:00,
2013-10-28 11:13:00,45.5,23.7,30.22,WNW,287,6.0,7.0,42,0.00,CLR,CLR,0.00,WeatherDisplay:10.34,2013-10-28 15:13:00,
2013-10-28 11:18:00,46.0,24.2,30.22,WNW,296,6.0,7.0,42,0.00,CLR,CLR,0.00,WeatherDisplay:10.34,2013-10-28 15:18:00,
2013-10-28 11:23:00,46.2,23.8,30.22,West,263,6.0,9.0,41,0.00,CLR,CLR,0.00,WeatherDisplay:10.34,2013-10-28 15:23:00,
2013-10-28 11:28:00,46.4,23.4,30.22,WSW,256,7.0,7.0,40,0.00,CLR,CLR,0.00,WeatherDisplay:10.34,2013-10-28 15:28:00,
2013-10-28 11:33:00,46.9,23.8,30.22,SW,233,9.0,13.0,40,0.00,CLR,CLR,0.00,WeatherDisplay:10.34,2013-10-28 15:33:00,
2013-10-28 11:38:00,47.1,24.0,30.22,North,9,9.0,13.0,40,0.00,CLR,CLR,0.00,WeatherDisplay:10.34,2013-10-28 15:38:00,
2013-10-28 11:43:00,47.1,24.0,30.22,North,10,4.0,6.0,40,0.00,CLR,CLR,0.00,WeatherDisplay:10.34,2013-10-28 15:43:00,
2013-10-28 11:48:00,46.6,23.5,30.22,West,268,7.0,9.0,40,0.00,CLR,CLR,0.00,WeatherDisplay:10.34,2013-10-28 15:48:00,
2013-10-28 11:53:00,46.4,23.4,30.22,WNW,299,4.0,7.0,40,0.00,CLR,CLR,0.00,WeatherDisplay:10.34,2013-10-28 15:53:00,
2013-10-28 11:58:00,46.8,23.7,30.22,West,262,4.0,12.0,40,0.00,CLR,CLR,0.00,WeatherDisplay:10.34,2013-10-28 15:58:00,
2013-10-28 12:03:00,46.8,23.7,30.22,WNW,302,4.0,7.0,40,0.00,CLR,CLR,0.00,WeatherDisplay:10.34,2013-10-28 16:03:00,
2013-10-28 12:08:00,46.8,23.7,30.22,East,99,9.0,15.0,40,0.00,CLR,CLR,0.00,WeatherDisplay:10.34,2013-10-28 16:08:00,
2013-10-28 12:13:00,46.9,23.8,30.22,NE,47,6.0,12.0,40,0.00,CLR,CLR,0.00,WeatherDisplay:10.34,2013-10-28 16:13:00,
2013-10-28 12:18:00,47.3,24.2,30.22,SSW,202,6.0,9.0,40,0.00,CLR,CLR,0.00,WeatherDisplay:10.34,2013-10-28 16:18:00,
2013-10-28 12:23:00,47.8,24.0,30.22,SE,146,7.0,12.0,39,0.00,CLR,CLR,0.00,WeatherDisplay:10.34,2013-10-28 16:23:00,
2013-10-28 12:28:00,48.0,24.2,30.22,NNW,341,6.0,8.0,39,0.00,CLR,CLR,0.00,WeatherDisplay:10.34,2013-10-28 16:28:00,
2013-10-28 12:33:00,48.7,24.9,30.22,West,271,7.0,14.0,39,0.00,CLR,CLR,0.00,WeatherDisplay:10.34,2013-10-28 16:33:00,
2013-10-28 12:38:00,49.3,24.7,30.22,SSW,199,5.0,6.0,38,0.00,CLR,CLR,0.00,WeatherDisplay:10.34,2013-10-28 16:38:00,
2013-10-28 12:43:00,49.3,24.7,30.22,West,266,6.0,14.0,38,0.00,CLR,CLR,0.00,WeatherDisplay:10.34,2013-10-28 16:43:00,
2013-10-28 12:48:00,48.9,24.4,30.22,WNW,286,6.0,9.0,38,0.00,CLR,CLR,0.00,WeatherDisplay:10.34,2013-10-28 16:48:00,
2013-10-28 12:53:00,48.7,24.2,30.22,NW,325,7.0,10.0,38,0.00,CLR,CLR,0.00,WeatherDisplay:10.34,2013-10-28 16:53:00,
2013-10-28 12:58:00,48.7,24.9,30.22,SW,236,9.0,13.0,39,0.00,CLR,CLR,0.00,WeatherDisplay:10.34,2013-10-28 16:58:00,
2013-10-28 13:03:00,48.6,24.7,30.22,NE,42,5.0,7.0,39,0.00,CLR,CLR,0.00,WeatherDisplay:10.34,2013-10-28 17:03:00,
2013-10-28 13:08:00,48.6,24.7,30.22,NNE,25,5.0,8.0,39,0.00,SCT,SCT,0.00,WeatherDisplay:10.34,2013-10-28 17:08:00,
2013-10-28 13:13:00,48.6,24.7,30.22,West,270,4.0,7.0,39,0.00,SCT,SCT,0.00,WeatherDisplay:10.34,2013-10-28 17:13:00,
2013-10-28 13:18:00,48.4,24.5,30.22,SW,222,7.0,12.0,39,0.00,SCT,SCT,0.00,WeatherDisplay:10.34,2013-10-28 17:18:00,
2013-10-28 13:23:00,48.4,24.5,30.22,NNE,29,5.0,7.0,39,0.00,SCT,SCT,0.00,WeatherDisplay:10.34,2013-10-28 17:23:00,
2013-10-28 13:28:00,48.2,24.4,30.22,NNW,332,6.0,8.0,39,0.00,SCT,SCT,0.00,WeatherDisplay:10.34,2013-10-28 17:28:00,
2013-10-28 13:33:00,48.0,24.2,30.22,North,351,4.0,7.0,39,0.00,SCT,SCT,0.00,WeatherDisplay:10.34,2013-10-28 17:33:00,
2013-10-28 13:38:00,47.8,24.7,30.22,NNW,331,5.0,7.0,40,0.00,SCT,SCT,0.00,WeatherDisplay:10.34,2013-10-28 17:38:00,
2013-10-28 13:43:00,47.3,26.5,30.25,NE,46,4.0,7.0,44,0.00,SCT,SCT,0.00,WeatherDisplay:10.34,2013-10-28 17:43:00,
2013-10-28 13:48:00,47.1,26.8,30.25,West,266,5.0,7.0,45,0.00,SCT,SCT,0.00,WeatherDisplay:10.34,2013-10-28 17:48:00,
2013-10-28 13:53:00,46.9,27.7,30.25,WNW,293,4.0,8.0,47,0.00,SCT,SCT,0.00,WeatherDisplay:10.34,2013-10-28 17:53:00,
2013-10-28 13:58:00,46.9,27.7,30.25,NNW,327,4.0,6.0,47,0.00,SCT,SCT,0.00,WeatherDisplay:10.34,2013-10-28 17:58:00,
2013-10-28 14:03:00,47.3,28.1,30.25,WSW,242,3.0,7.0,47,0.00,SCT,SCT,0.00,WeatherDisplay:10.34,2013-10-28 18:03:00,
2013-10-28 14:08:00,47.8,27.0,30.25,WSW,256,7.0,9.0,44,0.00,OVC,OVC,0.00,WeatherDisplay:10.34,2013-10-28 18:08:00,
2013-10-28 14:13:00,47.8,26.4,30.25,West,269,6.0,8.0,43,0.00,OVC,OVC,0.00,WeatherDisplay:10.34,2013-10-28 18:13:00,
2013-10-28 14:18:00,47.7,26.2,30.25,NNE,18,6.0,12.0,43,0.00,OVC,OVC,0.00,WeatherDisplay:10.34,2013-10-28 18:18:00,
2013-10-28 14:23:00,47.3,26.5,30.25,North,351,4.0,8.0,44,0.00,OVC,OVC,0.00,WeatherDisplay:10.34,2013-10-28 18:23:00,
2013-10-28 14:28:00,47.1,26.3,30.29,NNE,26,4.0,5.0,44,0.00,OVC,OVC,0.00,WeatherDisplay:10.34,2013-10-28 18:28:00,
2013-10-28 14:33:00,47.1,25.2,30.29,NNE,26,10.0,17.0,42,0.00,OVC,OVC,0.00,WeatherDisplay:10.34,2013-10-28 18:33:00,
2013-10-28 14:38:00,46.8,23.7,30.29,North,4,7.0,10.0,40,0.00,OVC,OVC,0.00,WeatherDisplay:10.34,2013-10-28 18:38:00,
2013-10-28 14:43:00,46.8,23.7,30.29,ENE,58,5.0,8.0,40,0.00,OVC,OVC,0.00,WeatherDisplay:10.34,2013-10-28 18:43:00,
2013-10-28 14:48:00,46.6,23.5,30.29,WSW,258,5.0,12.0,40,0.00,OVC,OVC,0.00,WeatherDisplay:10.34,2013-10-28 18:48:00,
2013-10-28 14:53:00,46.2,23.2,30.29,SSW,213,4.0,7.0,40,0.00,OVC,OVC,0.00,WeatherDisplay:10.34,2013-10-28 18:53:00,
2013-10-28 14:58:00,46.2,23.2,30.29,NNW,347,4.0,8.0,40,0.00,OVC,OVC,0.00,WeatherDisplay:10.34,2013-10-28 18:58:00,
2013-10-28 15:03:00,46.4,22.8,30.29,ENE,59,8.0,12.0,39,0.00,OVC,OVC,0.00,WeatherDisplay:10.34,2013-10-28 19:03:00,
2013-10-28 15:08:00,46.6,22.9,30.29,South,185,6.0,7.0,39,0.00,BKN,BKN,0.00,WeatherDisplay:10.34,2013-10-28 19:08:00,
2013-10-28 15:13:00,46.6,22.3,30.29,NNE,18,7.0,12.0,38,0.00,BKN,BKN,0.00,WeatherDisplay:10.34,2013-10-28 19:13:00,
2013-10-28 15:18:00,46.4,21.5,30.29,North,8,7.0,22.0,37,0.00,BKN,BKN,0.00,WeatherDisplay:10.34,2013-10-28 19:18:00,
2013-10-28 15:23:00,46.0,21.2,30.29,NNE,18,5.0,7.0,37,0.00,BKN,BKN,0.00,WeatherDisplay:10.34,2013-10-28 19:23:00,
2013-10-28 15:28:00,46.0,21.2,30.32,North,351,7.0,16.0,37,0.00,BKN,BKN,0.00,WeatherDisplay:10.34,2013-10-28 19:28:00,
2013-10-28 15:34:00,45.9,21.0,30.32,ESE,116,6.0,9.0,37,0.00,BKN,BKN,0.00,WeatherDisplay:10.34,2013-10-28 19:34:00,
2013-10-28 15:39:00,45.7,20.9,30.32,NE,47,5.0,12.0,37,0.00,BKN,BKN,0.00,WeatherDisplay:10.34,2013-10-28 19:39:00,
2013-10-28 15:44:00,45.7,20.9,30.32,North,8,11.0,22.0,37,0.00,BKN,BKN,0.00,WeatherDisplay:10.34,2013-10-28 19:44:00,
2013-10-28 15:49:00,45.7,20.9,30.32,NNE,26,4.0,6.0,37,0.00,BKN,BKN,0.00,WeatherDisplay:10.34,2013-10-28 19:49:00,
2013-10-28 15:54:00,45.5,20.1,30.32,SW,217,6.0,10.0,36,0.00,BKN,BKN,0.00,WeatherDisplay:10.34,2013-10-28 19:54:00,
2013-10-28 15:59:00,45.3,19.9,30.32,NNE,19,4.0,8.0,36,0.00,BKN,BKN,0.00,WeatherDisplay:10.34,2013-10-28 19:59:00,
2013-10-28 16:04:00,45.3,19.9,30.32,North,10,6.0,7.0,36,0.00,BKN,BKN,0.00,WeatherDisplay:10.34,2013-10-28 20:04:00,
2013-10-28 16:09:00,45.3,19.2,30.32,North,351,10.0,15.0,35,0.00,BKN,BKN,0.00,WeatherDisplay:10.34,2013-10-28 20:09:00,
2013-10-28 16:14:00,45.3,19.9,30.35,West,267,4.0,8.0,36,0.00,BKN,BKN,0.00,WeatherDisplay:10.34,2013-10-28 20:14:00,
2013-10-28 16:19:00,45.1,19.7,30.35,North,5,3.0,6.0,36,0.00,BKN,BKN,0.00,WeatherDisplay:10.34,2013-10-28 20:19:00,
2013-10-28 16:24:00,45.0,19.6,30.35,North,4,6.0,9.0,36,0.00,BKN,BKN,0.00,WeatherDisplay:10.34,2013-10-28 20:24:00,
2013-10-28 16:29:00,45.0,19.6,30.35,North,3,3.0,3.0,36,0.00,BKN,BKN,0.00,WeatherDisplay:10.34,2013-10-28 20:29:00,
2013-10-28 16:34:00,45.0,19.6,30.35,NNW,342,4.0,7.0,36,0.00,BKN,BKN,0.00,WeatherDisplay:10.34,2013-10-28 20:34:00,
2013-10-28 16:39:00,45.0,19.6,30.35,North,351,5.0,6.0,36,0.00,BKN,BKN,0.00,WeatherDisplay:10.34,2013-10-28 20:39:00,
2013-10-28 16:44:00,45.0,20.2,30.35,WNW,288,4.0,5.0,37,0.00,BKN,BKN,0.00,WeatherDisplay:10.34,2013-10-28 20:44:00,
2013-10-28 16:49:00,44.8,18.8,30.35,East,80,5.0,7.0,35,0.00,BKN,BKN,0.00,WeatherDisplay:10.34,2013-10-28 20:49:00,
2013-10-28 16:54:00,44.2,18.3,30.35,NNE,22,4.0,6.0,35,0.00,BKN,BKN,0.00,WeatherDisplay:10.34,2013-10-28 20:54:00,
2013-10-28 16:59:00,43.9,18.0,30.35,North,351,4.0,6.0,35,0.00,BKN,BKN,0.00,WeatherDisplay:10.34,2013-10-28 20:59:00,
2013-10-28 17:04:00,43.5,18.3,30.35,NNW,337,3.0,7.0,36,0.00,BKN,BKN,0.00,WeatherDisplay:10.34,2013-10-28 21:04:00,
2013-10-28 17:09:00,43.3,18.1,30.35,East,92,3.0,6.0,36,0.00,BKN,BKN,0.00,WeatherDisplay:10.34,2013-10-28 21:09:00,
2013-10-28 17:14:00,43.0,18.5,30.38,NNW,347,4.0,5.0,37,0.00,BKN,BKN,0.00,WeatherDisplay:10.34,2013-10-28 21:14:00,
2013-10-28 17:19:00,43.0,18.5,30.38,NNE,30,4.0,7.0,37,0.00,BKN,BKN,0.00,WeatherDisplay:10.34,2013-10-28 21:19:00,
2013-10-28 17:24:00,42.8,17.7,30.38,West,270,7.0,14.0,36,0.00,BKN,BKN,0.00,WeatherDisplay:10.34,2013-10-28 21:24:00,
2013-10-28 17:29:00,42.3,16.5,30.38,North,0,6.0,9.0,35,0.00,BKN,BKN,0.00,WeatherDisplay:10.34,2013-10-28 21:29:00,
2013-10-28 17:32:00,41.9,15.5,30.38,West,276,3.0,7.0,34,0.00,BKN,BKN,0.00,WeatherDisplay:10.34,2013-10-28 21:32:00,
2013-10-28 17:34:00,42.1,15.7,30.38,West,279,3.0,7.0,34,0.00,BKN,BKN,0.00,WeatherDisplay:10.34,2013-10-28 21:34:00,
2013-10-28 17:39:00,41.9,15.5,30.38,West,276,3.0,7.0,34,0.00,BKN,BKN,0.00,WeatherDisplay:10.34,2013-10-28 21:39:00,
2013-10-28 17:44:00,41.5,15.2,30.38,WSW,244,4.0,10.0,34,0.00,BKN,BKN,0.00,WeatherDisplay:10.34,2013-10-28 21:44:00,
2013-10-28 17:49:00,41.4,15.1,30.38,SSW,203,4.0,6.0,34,0.00,BKN,BKN,0.00,WeatherDisplay:10.34,2013-10-28 21:49:00,
2013-10-28 17:54:00,41.2,14.9,30.38,WSW,247,5.0,7.0,34,0.00,BKN,BKN,0.00,WeatherDisplay:10.34,2013-10-28 21:54:00,
2013-10-28 17:59:00,40.6,14.4,30.41,SW,225,4.0,4.0,34,0.00,BKN,BKN,0.00,WeatherDisplay:10.34,2013-10-28 21:59:00,
2013-10-28 18:04:00,40.6,15.1,30.41,SW,225,0.0,0.0,35,0.00,BKN,BKN,0.00,WeatherDisplay:10.34,2013-10-28 22:04:00,
2013-10-28 18:09:00,40.6,15.1,30.41,North,0,3.0,3.0,35,0.00,SCT,SCT,0.00,WeatherDisplay:10.34,2013-10-28 22:09:00,
2013-10-28 18:14:00,40.6,15.1,30.41,North,0,3.0,5.0,35,0.00,SCT,SCT,0.00,WeatherDisplay:10.34,2013-10-28 22:14:00,
2013-10-28 18:19:00,40.5,14.9,30.41,North,2,0.0,3.0,35,0.00,SCT,SCT,0.00,WeatherDisplay:10.34,2013-10-28 22:19:00,
2013-10-28 18:24:00,39.9,15.1,30.42,West,262,3.0,3.0,36,0.00,SCT,SCT,0.00,WeatherDisplay:10.34,2013-10-28 22:24:00,
2013-10-28 18:29:00,39.9,15.7,30.42,West,260,3.0,5.0,37,0.00,SCT,SCT,0.00,WeatherDisplay:10.34,2013-10-28 22:29:00,
2013-10-28 18:34:00,39.7,15.6,30.42,WSW,251,3.0,3.0,37,0.00,SCT,SCT,0.00,WeatherDisplay:10.34,2013-10-28 22:34:00,
2013-10-28 18:39:00,39.6,16.0,30.42,WSW,251,0.0,0.0,38,0.00,SCT,SCT,0.00,WeatherDisplay:10.34,2013-10-28 22:39:00,
2013-10-28 18:44:00,39.4,16.4,30.45,WSW,251,4.0,5.0,39,0.00,SCT,SCT,0.00,WeatherDisplay:10.34,2013-10-28 22:44:00,
2013-10-28 18:49:00,39.0,15.5,30.45,WSW,244,4.0,6.0,38,0.00,SCT,SCT,0.00,WeatherDisplay:10.34,2013-10-28 22:49:00,
2013-10-28 18:54:00,38.7,15.8,30.45,South,187,0.0,3.0,39,0.00,SCT,SCT,0.00,WeatherDisplay:10.34,2013-10-28 22:54:00,
2013-10-28 18:59:00,38.7,15.8,30.45,North,0,4.0,6.0,39,0.00,SCT,SCT,0.00,WeatherDisplay:10.34,2013-10-28 22:59:00,
2013-10-28 19:04:00,38.7,14.6,30.45,NW,325,5.0,6.0,37,0.00,SCT,SCT,0.00,WeatherDisplay:10.34,2013-10-28 23:04:00,
2013-10-28 19:09:00,38.8,14.1,30.45,NNW,342,3.0,3.0,36,0.00,CLR,CLR,0.00,WeatherDisplay:10.34,2013-10-28 23:09:00,
2013-10-28 19:14:00,39.0,14.3,30.45,NNW,342,4.0,6.0,36,0.00,CLR,CLR,0.00,WeatherDisplay:10.34,2013-10-28 23:14:00,
2013-10-28 19:19:00,39.0,13.6,30.45,NNE,12,4.0,4.0,35,0.00,CLR,CLR,0.00,WeatherDisplay:10.34,2013-10-28 23:19:00,
2013-10-28 19:24:00,38.8,14.1,30.45,NNE,13,0.0,3.0,36,0.00,CLR,CLR,0.00,WeatherDisplay:10.34,2013-10-28 23:24:00,
2013-10-28 19:29:00,38.7,14.6,30.45,North,351,4.0,5.0,37,0.00,CLR,CLR,0.00,WeatherDisplay:10.34,2013-10-28 23:29:00,
2013-10-28 19:34:00,38.7,13.3,30.45,NE,55,4.0,5.0,35,0.00,CLR,CLR,0.00,WeatherDisplay:10.34,2013-10-28 23:34:00,
2013-10-28 19:39:00,38.5,13.2,30.45,WNW,287,0.0,2.0,35,0.00,CLR,CLR,0.00,WeatherDisplay:10.34,2013-10-28 23:39:00,
2013-10-28 19:44:00,38.5,13.8,30.45,NNE,16,4.0,6.0,36,0.00,CLR,CLR,0.00,WeatherDisplay:10.34,2013-10-28 23:44:00,
2013-10-28 19:49:00,38.3,14.3,30.45,North,0,0.0,2.0,37,0.00,CLR,CLR,0.00,WeatherDisplay:10.34,2013-10-28 23:49:00,
2013-10-28 19:54:00,37.9,14.6,30.45,North,0,0.0,3.0,38,0.00,CLR,CLR,0.00,WeatherDisplay:10.34,2013-10-28 23:54:00,
2013-10-28 19:59:00,37.9,14.6,30.48,North,0,4.0,5.0,38,0.00,CLR,CLR,0.00,WeatherDisplay:10.34,2013-10-28 23:59:00,
2013-10-28 20:04:00,37.6,14.2,30.48,North,351,0.0,2.0,38,0.00,CLR,CLR,0.00,WeatherDisplay:10.34,2013-10-29 00:04:00,
2013-10-28 20:09:00,37.6,14.2,30.48,North,351,0.0,0.0,38,0.00,CLR,CLR,0.00,WeatherDisplay:10.34,2013-10-29 00:09:00,
2013-10-28 20:14:00,37.4,14.7,30.48,North,351,3.0,3.0,39,0.00,CLR,CLR,0.00,WeatherDisplay:10.34,2013-10-29 00:14:00,
2013-10-28 20:19:00,36.9,14.2,30.48,NNW,347,3.0,3.0,39,0.00,CLR,CLR,0.00,WeatherDisplay:10.34,2013-10-29 00:19:00,
2013-10-28 20:24:00,36.5,14.4,30.48,NNW,347,0.0,3.0,40,0.00,CLR,CLR,0.00,WeatherDisplay:10.34,2013-10-29 00:24:00,
2013-10-28 20:29:00,36.3,14.3,30.48,NNW,347,3.0,3.0,40,0.00,CLR,CLR,0.00,WeatherDisplay:10.34,2013-10-29 00:29:00,
2013-10-28 20:34:00,36.3,14.3,30.48,NNW,347,0.0,3.0,40,0.00,CLR,CLR,0.00,WeatherDisplay:10.34,2013-10-29 00:34:00,
2013-10-28 20:39:00,36.0,13.9,30.48,NNW,347,0.0,0.0,40,0.00,CLR,CLR,0.00,WeatherDisplay:10.34,2013-10-29 00:39:00,
2013-10-28 20:44:00,35.8,14.3,30.48,NNW,347,0.0,0.0,41,0.00,CLR,CLR,0.00,WeatherDisplay:10.34,2013-10-29 00:44:00,
2013-10-28 20:49:00,35.6,14.2,30.48,NNW,347,0.0,0.0,41,0.00,CLR,CLR,0.00,WeatherDisplay:10.34,2013-10-29 00:49:00,
2013-10-28 20:54:00,35.4,14.6,30.48,NNW,347,0.0,2.0,42,0.00,CLR,CLR,0.00,WeatherDisplay:10.34,2013-10-29 00:54:00,
2013-10-28 20:59:00,34.9,13.5,30.51,NNW,347,0.0,0.0,41,0.00,CLR,CLR,0.00,WeatherDisplay:10.34,2013-10-29 00:59:00,
2013-10-28 21:04:00,34.7,13.9,30.51,North,351,4.0,5.0,42,0.00,CLR,CLR,0.00,WeatherDisplay:10.34,2013-10-29 01:04:00,
2013-10-28 21:09:00,34.5,14.3,30.51,North,351,0.0,2.0,43,0.00,CLR,CLR,0.00,WeatherDisplay:10.34,2013-10-29 01:09:00,
2013-10-28 21:14:00,34.0,13.8,30.51,North,351,3.0,3.0,43,0.00,CLR,CLR,0.00,WeatherDisplay:10.34,2013-10-29 01:14:00,
2013-10-28 21:19:00,34.2,14.5,30.51,North,351,4.0,5.0,44,0.00,CLR,CLR,0.00,WeatherDisplay:10.34,2013-10-29 01:19:00,
2013-10-28 21:24:00,34.3,14.7,30.51,North,351,0.0,2.0,44,0.00,CLR,CLR,0.00,WeatherDisplay:10.34,2013-10-29 01:24:00,
2013-10-28 21:29:00,34.3,14.7,30.51,North,351,0.0,0.0,44,0.00,CLR,CLR,0.00,WeatherDisplay:10.34,2013-10-29 01:29:00,
2013-10-28 21:34:00,34.2,14.5,30.51,North,351,4.0,5.0,44,0.00,CLR,CLR,0.00,WeatherDisplay:10.34,2013-10-29 01:34:00,
2013-10-28 21:39:00,34.0,14.3,30.51,North,351,0.0,0.0,44,0.00,CLR,CLR,0.00,WeatherDisplay:10.34,2013-10-29 01:39:00,
2013-10-28 21:44:00,33.4,14.3,30.51,North,351,3.0,3.0,45,0.00,CLR,CLR,0.00,WeatherDisplay:10.34,2013-10-29 01:44:00,
2013-10-28 21:49:00,33.4,14.8,30.51,North,351,4.0,5.0,46,0.00,CLR,CLR,0.00,WeatherDisplay:10.34,2013-10-29 01:49:00,
2013-10-28 21:54:00,33.4,14.3,30.51,North,351,3.0,3.0,45,0.00,CLR,CLR,0.00,WeatherDisplay:10.34,2013-10-29 01:54:00,
2013-10-28 21:59:00,33.4,14.3,30.51,North,351,3.0,3.0,45,0.00,CLR,CLR,0.00,WeatherDisplay:10.34,2013-10-29 01:59:00,
2013-10-28 22:04:00,33.4,14.3,30.51,North,351,0.0,0.0,45,0.00,CLR,CLR,0.00,WeatherDisplay:10.34,2013-10-29 02:04:00,
2013-10-28 22:09:00,33.6,14.5,30.51,North,351,0.0,0.0,45,0.00,CLR,CLR,0.00,WeatherDisplay:10.34,2013-10-29 02:09:00,
2013-10-28 22:14:00,33.4,14.3,30.51,North,351,0.0,3.0,45,0.00,CLR,CLR,0.00,WeatherDisplay:10.34,2013-10-29 02:14:00,
2013-10-28 22:19:00,33.4,14.3,30.51,North,351,0.0,0.0,45,0.00,CLR,CLR,0.00,WeatherDisplay:10.34,2013-10-29 02:19:00,
2013-10-28 22:24:00,33.4,14.8,30.51,North,8,3.0,5.0,46,0.00,CLR,CLR,0.00,WeatherDisplay:10.34,2013-10-29 02:24:00,
2013-10-28 22:29:00,33.3,14.2,30.51,North,8,0.0,0.0,45,0.00,CLR,CLR,0.00,WeatherDisplay:10.34,2013-10-29 02:29:00,
2013-10-28 22:34:00,33.3,14.2,30.51,North,8,0.0,0.0,45,0.00,CLR,CLR,0.00,WeatherDisplay:10.34,2013-10-29 02:34:00,
2013-10-28 22:39:00,33.1,14.0,30.51,North,8,0.0,3.0,45,0.00,CLR,CLR,0.00,WeatherDisplay:10.34,2013-10-29 02:39:00,
2013-10-28 22:44:00,33.1,14.5,30.51,North,8,0.0,3.0,46,0.00,CLR,CLR,0.00,WeatherDisplay:10.34,2013-10-29 02:44:00,
2013-10-28 22:49:00,33.1,14.5,30.51,North,4,3.0,5.0,46,0.00,CLR,CLR,0.00,WeatherDisplay:10.34,2013-10-29 02:49:00,
2013-10-28 22:54:00,32.9,14.4,30.51,North,3,0.0,2.0,46,0.00,CLR,CLR,0.00,WeatherDisplay:10.34,2013-10-29 02:54:00,
2013-10-28 22:59:00,32.7,14.2,30.51,North,3,3.0,3.0,46,0.00,CLR,CLR,0.00,WeatherDisplay:10.34,2013-10-29 02:59:00,
2013-10-28 23:04:00,32.7,14.7,30.50,North,3,3.0,3.0,47,0.00,CLR,CLR,0.00,WeatherDisplay:10.34,2013-10-29 03:04:00,
2013-10-28 23:09:00,32.9,14.8,30.50,NE,37,0.0,0.0,47,0.00,CLR,CLR,0.00,WeatherDisplay:10.34,2013-10-29 03:09:00,
2013-10-28 23:14:00,32.9,14.4,30.50,NE,37,3.0,3.0,46,0.00,CLR,CLR,0.00,WeatherDisplay:10.34,2013-10-29 03:14:00,
2013-10-28 23:19:00,32.7,14.2,30.50,NE,37,0.0,3.0,46,0.00,CLR,CLR,0.00,WeatherDisplay:10.34,2013-10-29 03:19:00,
2013-10-28 23:24:00,32.9,14.4,30.50,NE,36,3.0,3.0,46,0.00,CLR,CLR,0.00,WeatherDisplay:10.34,2013-10-29 03:24:00,
2013-10-28 23:29:00,32.7,14.2,30.50,NE,36,0.0,3.0,46,0.00,CLR,CLR,0.00,WeatherDisplay:10.34,2013-10-29 03:29:00,
2013-10-28 23:31:00,32.7,14.2,30.50,NNW,346,3.0,3.0,46,0.00,CLR,CLR,0.00,WeatherDisplay:10.34,2013-10-29 03:31:00,
2013-10-28 23:34:00,32.7,14.2,30.50,NNW,346,4.0,6.0,46,0.00,CLR,CLR,0.00,WeatherDisplay:10.34,2013-10-29 03:34:00,
2013-10-28 23:39:00,32.7,14.2,30.50,NNW,346,3.0,3.0,46,0.00,CLR,CLR,0.00,WeatherDisplay:10.34,2013-10-29 03:39:00,
2013-10-28 23:44:00,32.7,14.2,30.53,NNW,346,3.0,3.0,46,0.00,CLR,CLR,0.00,WeatherDisplay:10.34,2013-10-29 03:44:00,
2013-10-28 23:50:00,32.7,14.2,30.53,NNW,346,0.0,2.0,46,0.00,CLR,CLR,0.00,WeatherDisplay:10.34,2013-10-29 03:50:00,
2013-10-28 23:55:00,32.7,14.2,30.53,NNW,346,0.0,3.0,46,0.00,CLR,CLR,0.00,WeatherDisplay:10.34,2013-10-29 03:55:00,